sensor_id;sensor_type;location;lat;lon;timestamp;pressure;altitude;pressure_sealevel;temperature;humidity
48968;BME280;46511;53.148;8.204;2023-03-26T00:00:26;100426.81;;;9.90;100.00
48968;BME280;46511;53.148;8.204;2023-03-26T00:02:58;100430.44;;;10.03;100.00
48968;BME280;46511;53.148;8.204;2023-03-26T00:05:29;100434.50;;;9.65;100.00
48968;BME280;46511;53.148;8.204;2023-03-26T00:08:02;100432.97;;;9.61;100.00
48968;BME280;46511;53.148;8.204;2023-03-26T00:10:37;100434.19;;;9.55;100.00
48968;BME280;46511;53.148;8.204;2023-03-26T00:13:09;100441.22;;;9.40;100.00
48968;BME280;46511;53.148;8.204;2023-03-26T00:15:36;100440.91;;;9.15;100.00
48968;BME280;46511;53.148;8.204;2023-03-26T00:18:07;100441.91;;;9.28;100.00
48968;BME280;46511;53.148;8.204;2023-03-26T00:20:39;100443.53;;;8.99;100.00
48968;BME280;46511;53.148;8.204;2023-03-26T00:23:11;100447.16;;;9.14;100.00
48968;BME280;46511;53.148;8.204;2023-03-26T00:25:43;100447.91;;;9.48;100.00
48968;BME280;46511;53.148;8.204;2023-03-26T00:28:16;100452.25;;;9.49;100.00
48968;BME280;46511;53.148;8.204;2023-03-26T00:31:01;100450.94;;;9.56;100.00
48968;BME280;46511;53.148;8.204;2023-03-26T00:33:35;100449.19;;;9.40;100.00
48968;BME280;46511;53.148;8.204;2023-03-26T00:36:09;100450.22;;;8.91;100.00
48968;BME280;46511;53.148;8.204;2023-03-26T00:38:45;100463.31;;;9.25;100.00
48968;BME280;46511;53.148;8.204;2023-03-26T00:41:18;100461.06;;;9.33;100.00
48968;BME280;46511;53.148;8.204;2023-03-26T00:43:56;100473.19;;;9.53;100.00
48968;BME280;46511;53.148;8.204;2023-03-26T00:46:29;100471.50;;;9.36;100.00
48968;BME280;46511;53.148;8.204;2023-03-26T00:49:01;100468.06;;;9.50;100.00
48968;BME280;46511;53.148;8.204;2023-03-26T00:51:33;100465.75;;;9.60;100.00
48968;BME280;46511;53.148;8.204;2023-03-26T00:54:05;100462.78;;;9.50;100.00
48968;BME280;46511;53.148;8.204;2023-03-26T00:56:38;100460.16;;;9.64;100.00
48968;BME280;46511;53.148;8.204;2023-03-26T00:59:09;100463.81;;;9.48;100.00
48968;BME280;46511;53.148;8.204;2023-03-26T01:01:41;100455.06;;;9.45;100.00
48968;BME280;46511;53.148;8.204;2023-03-26T01:04:19;100462.59;;;9.37;100.00
48968;BME280;46511;53.148;8.204;2023-03-26T01:06:57;100461.81;;;9.51;100.00
48968;BME280;46511;53.148;8.204;2023-03-26T01:09:34;100461.06;;;9.33;100.00
48968;BME280;46511;53.148;8.204;2023-03-26T01:12:10;100465.00;;;9.42;100.00
48968;BME280;46511;53.148;8.204;2023-03-26T01:14:48;100471.50;;;9.52;100.00
48968;BME280;46511;53.148;8.204;2023-03-26T01:17:22;100467.69;;;9.72;100.00
48968;BME280;46511;53.148;8.204;2023-03-26T01:19:56;100470.44;;;9.55;100.00
48968;BME280;46511;53.148;8.204;2023-03-26T01:22:44;100470.63;;;9.36;100.00
48968;BME280;46511;53.148;8.204;2023-03-26T01:25:19;100473.38;;;9.50;100.00
48968;BME280;46511;53.148;8.204;2023-03-26T01:27:55;100472.88;;;9.28;100.00
48968;BME280;46511;53.148;8.204;2023-03-26T01:30:42;100464.41;;;8.90;100.00
48968;BME280;46511;53.148;8.204;2023-03-26T01:33:33;100472.19;;;9.40;100.00
48968;BME280;46511;53.148;8.204;2023-03-26T01:36:15;100469.56;;;9.70;100.00
48968;BME280;46511;53.148;8.204;2023-03-26T01:42:17;100469.13;;;9.16;100.00
48968;BME280;46511;53.148;8.204;2023-03-26T01:44:56;100468.59;;;9.25;100.00
48968;BME280;46511;53.148;8.204;2023-03-26T01:47:32;100465.34;;;9.52;100.00
48968;BME280;46511;53.148;8.204;2023-03-26T01:50:07;100463.97;;;9.44;100.00
48968;BME280;46511;53.148;8.204;2023-03-26T01:52:39;100465.19;;;9.39;100.00
48968;BME280;46511;53.148;8.204;2023-03-26T01:55:11;100460.66;;;9.25;100.00
48968;BME280;46511;53.148;8.204;2023-03-26T01:57:55;100468.59;;;9.41;100.00
48968;BME280;46511;53.148;8.204;2023-03-26T02:00:41;100465.34;;;9.36;100.00
48968;BME280;46511;53.148;8.204;2023-03-26T02:03:38;100455.47;;;9.54;100.00
48968;BME280;46511;53.148;8.204;2023-03-26T02:06:25;100459.97;;;9.22;100.00
48968;BME280;46511;53.148;8.204;2023-03-26T02:09:08;100457.16;;;9.25;100.00
48968;BME280;46511;53.148;8.204;2023-03-26T02:11:44;100449.59;;;9.49;100.00
48968;BME280;46511;53.148;8.204;2023-03-26T02:14:17;100452.31;;;9.63;100.00
48968;BME280;46511;53.148;8.204;2023-03-26T02:16:49;100456.41;;;9.68;100.00
48968;BME280;46511;53.148;8.204;2023-03-26T02:19:21;100448.88;;;9.61;100.00
48968;BME280;46511;53.148;8.204;2023-03-26T02:21:54;100447.91;;;9.48;100.00
48968;BME280;46511;53.148;8.204;2023-03-26T02:24:29;100444.03;;;9.53;100.00
48968;BME280;46511;53.148;8.204;2023-03-26T02:27:00;100449.28;;;9.23;100.00
48968;BME280;46511;53.148;8.204;2023-03-26T02:29:35;100443.59;;;9.61;100.00
48968;BME280;46511;53.148;8.204;2023-03-26T02:32:10;100447.66;;;9.21;100.00
48968;BME280;46511;53.148;8.204;2023-03-26T02:34:44;100448.47;;;9.53;100.00
48968;BME280;46511;53.148;8.204;2023-03-26T02:37:15;100439.25;;;9.28;100.00
48968;BME280;46511;53.148;8.204;2023-03-26T02:39:48;100441.25;;;9.09;100.00
48968;BME280;46511;53.148;8.204;2023-03-26T02:42:20;100439.81;;;9.19;100.00
48968;BME280;46511;53.148;8.204;2023-03-26T02:44:51;100437.81;;;9.38;100.00
48968;BME280;46511;53.148;8.204;2023-03-26T02:47:22;100431.81;;;9.35;100.00
48968;BME280;46511;53.148;8.204;2023-03-26T02:49:54;100430.97;;;9.34;100.00
48968;BME280;46511;53.148;8.204;2023-03-26T02:52:25;100427.13;;;9.08;100.00
48968;BME280;46511;53.148;8.204;2023-03-26T02:54:57;100428.59;;;9.14;100.00
48968;BME280;46511;53.148;8.204;2023-03-26T02:57:28;100426.13;;;9.11;100.00
48968;BME280;46511;53.148;8.204;2023-03-26T02:59:59;100429.44;;;8.99;100.00
48968;BME280;46511;53.148;8.204;2023-03-26T03:02:43;100424.66;;;8.90;100.00
48968;BME280;46511;53.148;8.204;2023-03-26T03:05:14;100426.34;;;8.59;100.00
48968;BME280;46511;53.148;8.204;2023-03-26T03:07:47;100427.56;;;8.69;100.00
48968;BME280;46511;53.148;8.204;2023-03-26T03:10:19;100419.66;;;8.52;100.00
48968;BME280;46511;53.148;8.204;2023-03-26T03:12:51;100423.97;;;8.54;100.00
48968;BME280;46511;53.148;8.204;2023-03-26T03:15:23;100429.44;;;8.67;100.00
48968;BME280;46511;53.148;8.204;2023-03-26T03:17:55;100429.59;;;8.80;100.00
48968;BME280;46511;53.148;8.204;2023-03-26T03:20:26;100429.69;;;8.78;100.00
48968;BME280;46511;53.148;8.204;2023-03-26T03:23:00;100433.41;;;8.92;100.00
48968;BME280;46511;53.148;8.204;2023-03-26T03:25:31;100438.16;;;8.85;100.00
48968;BME280;46511;53.148;8.204;2023-03-26T03:28:03;100424.66;;;8.90;100.00
48968;BME280;46511;53.148;8.204;2023-03-26T03:30:35;100423.38;;;8.97;100.00
48968;BME280;46511;53.148;8.204;2023-03-26T03:33:06;100433.91;;;8.98;100.00
48968;BME280;46511;53.148;8.204;2023-03-26T03:35:37;100434.94;;;8.96;100.00
48968;BME280;46511;53.148;8.204;2023-03-26T03:38:09;100431.69;;;9.06;100.00
48968;BME280;46511;53.148;8.204;2023-03-26T03:40:41;100431.47;;;8.62;100.00
48968;BME280;46511;53.148;8.204;2023-03-26T03:43:13;100440.38;;;8.77;100.00
48968;BME280;46511;53.148;8.204;2023-03-26T03:45:44;100429.56;;;8.81;100.00
48968;BME280;46511;53.148;8.204;2023-03-26T03:48:15;100439.34;;;8.79;100.00
48968;BME280;46511;53.148;8.204;2023-03-26T03:50:48;100434.22;;;8.76;100.00
48968;BME280;46511;53.148;8.204;2023-03-26T03:53:20;100430.81;;;8.74;100.00
48968;BME280;46511;53.148;8.204;2023-03-26T03:55:55;100428.16;;;8.74;100.00
48968;BME280;46511;53.148;8.204;2023-03-26T03:58:27;100421.66;;;8.80;100.00
48968;BME280;46511;53.148;8.204;2023-03-26T04:01:00;100432.16;;;8.66;100.00
48968;BME280;46511;53.148;8.204;2023-03-26T04:03:33;100425.66;;;8.71;100.00
48968;BME280;46511;53.148;8.204;2023-03-26T04:06:08;100431.47;;;8.62;100.00
48968;BME280;46511;53.148;8.204;2023-03-26T04:08:41;100423.50;;;8.46;100.00
48968;BME280;46511;53.148;8.204;2023-03-26T04:11:12;100422.09;;;8.72;100.00
48968;BME280;46511;53.148;8.204;2023-03-26T04:13:43;100426.47;;;8.73;100.00
48968;BME280;46511;53.148;8.204;2023-03-26T04:16:15;100426.16;;;8.62;100.00
48968;BME280;46511;53.148;8.204;2023-03-26T04:18:48;100425.53;;;8.74;100.00
48968;BME280;46511;53.148;8.204;2023-03-26T04:21:19;100424.59;;;8.75;100.00
48968;BME280;46511;53.148;8.204;2023-03-26T04:23:51;100416.19;;;8.67;100.00
48968;BME280;46511;53.148;8.204;2023-03-26T04:26:24;100411.50;;;8.56;100.00
48968;BME280;46511;53.148;8.204;2023-03-26T04:28:56;100412.16;;;8.60;100.00
48968;BME280;46511;53.148;8.204;2023-03-26T04:31:30;100414.72;;;8.46;100.00
48968;BME280;46511;53.148;8.204;2023-03-26T04:34:07;100413.34;;;8.39;100.00
48968;BME280;46511;53.148;8.204;2023-03-26T04:36:48;100408.31;;;8.32;100.00
48968;BME280;46511;53.148;8.204;2023-03-26T04:39:21;100407.09;;;8.22;100.00
48968;BME280;46511;53.148;8.204;2023-03-26T04:41:52;100407.50;;;8.15;100.00
48968;BME280;46511;53.148;8.204;2023-03-26T04:44:24;100420.16;;;7.92;100.00
48968;BME280;46511;53.148;8.204;2023-03-26T04:46:55;100418.28;;;7.94;100.00
48968;BME280;46511;53.148;8.204;2023-03-26T04:49:26;100404.81;;;7.99;100.00
48968;BME280;46511;53.148;8.204;2023-03-26T04:51:57;100415.06;;;8.05;100.00
48968;BME280;46511;53.148;8.204;2023-03-26T04:54:29;100420.69;;;7.99;100.00
48968;BME280;46511;53.148;8.204;2023-03-26T04:57:01;100424.94;;;8.19;100.00
48968;BME280;46511;53.148;8.204;2023-03-26T04:59:35;100411.81;;;8.33;100.00
48968;BME280;46511;53.148;8.204;2023-03-26T05:02:07;100415.31;;;8.35;100.00
48968;BME280;46511;53.148;8.204;2023-03-26T05:04:39;100411.44;;;8.41;100.00
48968;BME280;46511;53.148;8.204;2023-03-26T05:07:11;100409.44;;;8.46;100.00
48968;BME280;46511;53.148;8.204;2023-03-26T05:09:48;100412.03;;;8.63;100.00
48968;BME280;46511;53.148;8.204;2023-03-26T05:12:19;100413.53;;;8.67;100.00
48968;BME280;46511;53.148;8.204;2023-03-26T05:14:51;100411.34;;;8.75;100.00
48968;BME280;46511;53.148;8.204;2023-03-26T05:17:22;100420.22;;;8.74;100.00
48968;BME280;46511;53.148;8.204;2023-03-26T05:19:54;100410.66;;;8.87;100.00
48968;BME280;46511;53.148;8.204;2023-03-26T05:22:26;100406.97;;;8.74;100.00
48968;BME280;46511;53.148;8.204;2023-03-26T05:24:57;100405.53;;;8.84;100.00
48968;BME280;46511;53.148;8.204;2023-03-26T05:27:28;100410.72;;;8.70;100.00
48968;BME280;46511;53.148;8.204;2023-03-26T05:30:00;100413.22;;;8.89;100.00
48968;BME280;46511;53.148;8.204;2023-03-26T05:32:32;100408.31;;;8.50;100.00
48968;BME280;46511;53.148;8.204;2023-03-26T05:35:04;100407.06;;;8.73;100.00
48968;BME280;46511;53.148;8.204;2023-03-26T05:37:37;100407.94;;;8.73;100.00
48968;BME280;46511;53.148;8.204;2023-03-26T05:40:09;100407.94;;;8.73;100.00
48968;BME280;46511;53.148;8.204;2023-03-26T05:42:43;100412.56;;;9.01;100.00
48968;BME280;46511;53.148;8.204;2023-03-26T05:45:15;100418.34;;;8.92;100.00
48968;BME280;46511;53.148;8.204;2023-03-26T05:47:46;100420.22;;;9.06;100.00
48968;BME280;46511;53.148;8.204;2023-03-26T05:50:19;100422.44;;;9.13;100.00
48968;BME280;46511;53.148;8.204;2023-03-26T05:52:50;100422.44;;;9.13;100.00
48968;BME280;46511;53.148;8.204;2023-03-26T05:55:21;100408.91;;;9.18;100.00
48968;BME280;46511;53.148;8.204;2023-03-26T05:57:53;100415.78;;;9.22;100.00
48968;BME280;46511;53.148;8.204;2023-03-26T06:00:24;100422.81;;;8.92;100.00
48968;BME280;46511;53.148;8.204;2023-03-26T06:02:55;100417.47;;;9.07;100.00
48968;BME280;46511;53.148;8.204;2023-03-26T06:05:27;100412.38;;;9.20;100.00
48968;BME280;46511;53.148;8.204;2023-03-26T06:08:02;100417.38;;;9.25;100.00
48968;BME280;46511;53.148;8.204;2023-03-26T06:10:36;100417.16;;;9.29;100.00
48968;BME280;46511;53.148;8.204;2023-03-26T06:13:08;100415.97;;;9.19;100.00
48968;BME280;46511;53.148;8.204;2023-03-26T06:15:39;100413.59;;;9.44;100.00
48968;BME280;46511;53.148;8.204;2023-03-26T06:18:11;100412.88;;;9.57;100.00
48968;BME280;46511;53.148;8.204;2023-03-26T06:20:42;100404.28;;;9.37;100.00
48968;BME280;46511;53.148;8.204;2023-03-26T06:23:13;100402.97;;;9.74;100.00
48968;BME280;46511;53.148;8.204;2023-03-26T06:25:45;100405.97;;;9.98;100.00
48968;BME280;46511;53.148;8.204;2023-03-26T06:28:16;100403.06;;;9.59;100.00
48968;BME280;46511;53.148;8.204;2023-03-26T06:30:48;100408.34;;;9.59;100.00
48968;BME280;46511;53.148;8.204;2023-03-26T06:33:20;100408.69;;;9.53;100.00
48968;BME280;46511;53.148;8.204;2023-03-26T06:35:51;100414.22;;;9.64;100.00
48968;BME280;46511;53.148;8.204;2023-03-26T06:38:22;100412.56;;;9.47;100.00
48968;BME280;46511;53.148;8.204;2023-03-26T06:40:53;100422.56;;;9.58;100.00
48968;BME280;46511;53.148;8.204;2023-03-26T06:43:25;100417.56;;;9.67;100.00
48968;BME280;46511;53.148;8.204;2023-03-26T06:45:56;100423.97;;;9.93;100.00
48968;BME280;46511;53.148;8.204;2023-03-26T06:48:27;100421.59;;;9.89;100.00
48968;BME280;46511;53.148;8.204;2023-03-26T06:50:58;100415.44;;;9.88;100.00
48968;BME280;46511;53.148;8.204;2023-03-26T06:53:30;100414.31;;;9.62;100.00
48968;BME280;46511;53.148;8.204;2023-03-26T06:56:01;100421.84;;;9.84;100.00
48968;BME280;46511;53.148;8.204;2023-03-26T06:58:33;100419.19;;;9.84;100.00
48968;BME280;46511;53.148;8.204;2023-03-26T07:01:05;100421.47;;;9.76;100.00
48968;BME280;46511;53.148;8.204;2023-03-26T07:03:36;100418.97;;;9.59;100.00
48968;BME280;46511;53.148;8.204;2023-03-26T07:06:07;100423.06;;;10.09;100.00
48968;BME280;46511;53.148;8.204;2023-03-26T07:08:39;100420.22;;;10.12;100.00
48968;BME280;46511;53.148;8.204;2023-03-26T07:11:10;100424.41;;;10.16;100.00
48968;BME280;46511;53.148;8.204;2023-03-26T07:13:37;100419.41;;;9.81;100.00
48968;BME280;46511;53.148;8.204;2023-03-26T07:16:09;100415.06;;;9.94;100.00
48968;BME280;46511;53.148;8.204;2023-03-26T07:18:41;100414.69;;;10.00;100.00
48968;BME280;46511;53.148;8.204;2023-03-26T07:21:13;100422.84;;;9.97;100.00
48968;BME280;46511;53.148;8.204;2023-03-26T07:23:44;100420.66;;;10.04;100.00
48968;BME280;46511;53.148;8.204;2023-03-26T07:26:24;100417.16;;;10.03;100.00
48968;BME280;46511;53.148;8.204;2023-03-26T07:29:10;100405.28;;;10.39;100.00
48968;BME280;46511;53.148;8.204;2023-03-26T07:32:24;100415.63;;;10.29;100.00
48968;BME280;46511;53.148;8.204;2023-03-26T07:34:50;100413.41;;;10.22;100.00
48968;BME280;46511;53.148;8.204;2023-03-26T07:37:40;100415.63;;;10.29;100.00
48968;BME280;46511;53.148;8.204;2023-03-26T07:40:27;100410.31;;;10.29;100.00
48968;BME280;46511;53.148;8.204;2023-03-26T07:43:06;100411.72;;;10.49;100.00
48968;BME280;46511;53.148;8.204;2023-03-26T07:45:43;100408.28;;;10.19;100.00
48968;BME280;46511;53.148;8.204;2023-03-26T07:48:19;100415.44;;;10.02;100.00
48968;BME280;46511;53.148;8.204;2023-03-26T07:50:55;100411.56;;;10.52;100.00
48968;BME280;46511;53.148;8.204;2023-03-26T07:53:27;100412.00;;;10.59;100.00
48968;BME280;46511;53.148;8.204;2023-03-26T07:56:03;100402.53;;;10.55;100.00
48968;BME280;46511;53.148;8.204;2023-03-26T08:07:17;100406.59;;;11.16;100.00
48968;BME280;46511;53.148;8.204;2023-03-26T08:12:30;100398.31;;;10.94;100.00
48968;BME280;46511;53.148;8.204;2023-03-26T08:15:14;100397.50;;;11.33;100.00
48968;BME280;46511;53.148;8.204;2023-03-26T08:23:28;100389.94;;;11.66;100.00
48968;BME280;46511;53.148;8.204;2023-03-26T08:29:09;100395.72;;;11.46;99.15
48968;BME280;46511;53.148;8.204;2023-03-26T08:31:45;100386.59;;;11.90;97.20
48968;BME280;46511;53.148;8.204;2023-03-26T08:34:18;100393.75;;;12.15;92.22
48968;BME280;46511;53.148;8.204;2023-03-26T08:36:50;100401.94;;;11.86;87.90
48968;BME280;46511;53.148;8.204;2023-03-26T08:39:21;100398.72;;;11.81;92.32
48968;BME280;46511;53.148;8.204;2023-03-26T08:53:42;100405.94;;;12.68;80.16
48968;BME280;46511;53.148;8.204;2023-03-26T09:02:36;100396.72;;;12.36;80.18
48968;BME280;46511;53.148;8.204;2023-03-26T09:05:39;100394.03;;;12.61;81.60
48968;BME280;46511;53.148;8.204;2023-03-26T09:12:04;100394.91;;;12.49;77.50
48968;BME280;46511;53.148;8.204;2023-03-26T09:17:48;100393.44;;;13.18;74.71
48968;BME280;46511;53.148;8.204;2023-03-26T09:23:58;100402.88;;;14.51;62.87
48968;BME280;46511;53.148;8.204;2023-03-26T09:32:20;100395.16;;;14.24;62.23
48968;BME280;46511;53.148;8.204;2023-03-26T09:38:10;100386.28;;;16.80;50.57
48968;BME280;46511;53.148;8.204;2023-03-26T09:40:50;100394.75;;;17.84;44.75
48968;BME280;46511;53.148;8.204;2023-03-26T10:04:30;100400.50;;;16.71;45.36
48968;BME280;46511;53.148;8.204;2023-03-26T10:10:03;100405.13;;;13.76;58.26
48968;BME280;46511;53.148;8.204;2023-03-26T10:12:53;100411.38;;;13.29;59.07
48968;BME280;46511;53.148;8.204;2023-03-26T10:29:37;100401.25;;;13.80;57.45
48968;BME280;46511;53.148;8.204;2023-03-26T10:35:46;100403.44;;;13.75;57.39
48968;BME280;46511;53.148;8.204;2023-03-26T10:38:32;100391.38;;;14.16;56.77
48968;BME280;46511;53.148;8.204;2023-03-26T10:46:56;100404.38;;;15.10;57.33
48968;BME280;46511;53.148;8.204;2023-03-26T10:53:03;100406.34;;;14.85;53.62
48968;BME280;46511;53.148;8.204;2023-03-26T10:55:53;100408.91;;;15.41;49.46
48968;BME280;46511;53.148;8.204;2023-03-26T10:58:31;100408.34;;;14.61;51.52
48968;BME280;46511;53.148;8.204;2023-03-26T11:01:10;100412.31;;;16.17;48.85
48968;BME280;46511;53.148;8.204;2023-03-26T11:03:51;100410.22;;;18.38;43.34
48968;BME280;46511;53.148;8.204;2023-03-26T11:09:43;100407.84;;;18.63;39.61
48968;BME280;46511;53.148;8.204;2023-03-26T11:26:05;100410.66;;;22.24;33.08
48968;BME280;46511;53.148;8.204;2023-03-26T11:28:59;100410.00;;;20.73;34.44
48968;BME280;46511;53.148;8.204;2023-03-26T11:32:25;100411.63;;;19.52;34.79
48968;BME280;46511;53.148;8.204;2023-03-26T11:34:55;100418.19;;;18.11;37.06
48968;BME280;46511;53.148;8.204;2023-03-26T11:37:52;100405.38;;;16.87;38.41
48968;BME280;46511;53.148;8.204;2023-03-26T11:40:33;100412.22;;;17.20;39.94
48968;BME280;46511;53.148;8.204;2023-03-26T11:43:09;100419.72;;;15.83;41.93
48968;BME280;46511;53.148;8.204;2023-03-26T11:45:44;100412.44;;;16.37;41.97
48968;BME280;46511;53.148;8.204;2023-03-26T11:48:22;100427.28;;;15.46;45.10
48968;BME280;46511;53.148;8.204;2023-03-26T11:51:04;100422.84;;;15.88;42.20
48968;BME280;46511;53.148;8.204;2023-03-26T11:53:44;100419.19;;;15.89;43.31
48968;BME280;46511;53.148;8.204;2023-03-26T11:56:21;100421.63;;;15.17;41.99
48968;BME280;46511;53.148;8.204;2023-03-26T11:59:13;100412.00;;;15.14;42.82
48968;BME280;46511;53.148;8.204;2023-03-26T12:04:40;100412.66;;;15.50;44.27
48968;BME280;46511;53.148;8.204;2023-03-26T12:07:16;100406.88;;;17.59;39.01
48968;BME280;46511;53.148;8.204;2023-03-26T12:10:03;100410.84;;;16.85;40.47
48968;BME280;46511;53.148;8.204;2023-03-26T12:12:39;100412.50;;;16.46;41.59
48968;BME280;46511;53.148;8.204;2023-03-26T12:15:16;100413.53;;;15.83;41.70
48968;BME280;46511;53.148;8.204;2023-03-26T12:17:51;100411.22;;;15.46;43.47
48968;BME280;46511;53.148;8.204;2023-03-26T12:20:31;100407.56;;;16.72;41.04
48968;BME280;46511;53.148;8.204;2023-03-26T12:23:04;100404.38;;;15.85;40.73
48968;BME280;46511;53.148;8.204;2023-03-26T12:25:38;100404.34;;;17.67;39.36
48968;BME280;46511;53.148;8.204;2023-03-26T12:30:50;100406.66;;;19.30;35.89
48968;BME280;46511;53.148;8.204;2023-03-26T12:33:31;100391.03;;;22.94;29.79
48968;BME280;46511;53.148;8.204;2023-03-26T12:36:29;100395.72;;;23.62;28.00
48968;BME280;46511;53.148;8.204;2023-03-26T12:38:59;100408.78;;;22.33;29.28
48968;BME280;46511;53.148;8.204;2023-03-26T12:41:34;100409.84;;;18.61;33.53
48968;BME280;46511;53.148;8.204;2023-03-26T12:44:42;100412.16;;;17.01;36.65
48968;BME280;46511;53.148;8.204;2023-03-26T12:49:56;100402.59;;;22.64;28.81
48968;BME280;46511;53.148;8.204;2023-03-26T12:58:19;100407.91;;;20.93;31.08
48968;BME280;46511;53.148;8.204;2023-03-26T13:09:48;100416.91;;;19.97;32.73
48968;BME280;46511;53.148;8.204;2023-03-26T13:12:46;100417.28;;;17.23;36.97
48968;BME280;46511;53.148;8.204;2023-03-26T13:15:35;100423.91;;;15.97;38.46
48968;BME280;46511;53.148;8.204;2023-03-26T13:29:17;100417.75;;;20.42;31.18
48968;BME280;46511;53.148;8.204;2023-03-26T13:34:58;100416.56;;;21.55;30.33
48968;BME280;46511;53.148;8.204;2023-03-26T13:43:22;100410.47;;;21.53;29.18
48968;BME280;46511;53.148;8.204;2023-03-26T14:00:12;100430.16;;;16.49;36.33
48968;BME280;46511;53.148;8.204;2023-03-26T14:03:19;100435.13;;;15.15;38.26
48968;BME280;46511;53.148;8.204;2023-03-26T14:06:07;100432.88;;;16.59;36.31
48968;BME280;46511;53.148;8.204;2023-03-26T14:09:02;100435.16;;;16.63;35.69
48968;BME280;46511;53.148;8.204;2023-03-26T14:17:00;100444.91;;;19.51;32.48
48968;BME280;46511;53.148;8.204;2023-03-26T14:23:06;100440.94;;;19.55;31.27
48968;BME280;46511;53.148;8.204;2023-03-26T14:31:32;100448.41;;;16.85;34.30
48968;BME280;46511;53.148;8.204;2023-03-26T14:42:28;100462.09;;;16.31;36.83
48968;BME280;46511;53.148;8.204;2023-03-26T14:54:30;100467.94;;;15.29;37.13
48968;BME280;46511;53.148;8.204;2023-03-26T14:57:17;100466.19;;;14.27;39.00
48968;BME280;46511;53.148;8.204;2023-03-26T15:02:55;100481.13;;;14.98;39.22
48968;BME280;46511;53.148;8.204;2023-03-26T15:05:46;100473.81;;;15.00;39.58
48968;BME280;46511;53.148;8.204;2023-03-26T15:08:55;100476.34;;;15.13;39.75
48968;BME280;46511;53.148;8.204;2023-03-26T15:20:51;100493.72;;;13.81;41.41
48968;BME280;46511;53.148;8.204;2023-03-26T15:23:53;100492.50;;;13.74;40.81
48968;BME280;46511;53.148;8.204;2023-03-26T15:26:53;100501.94;;;13.30;41.76
48968;BME280;46511;53.148;8.204;2023-03-26T15:36:20;100511.00;;;13.15;46.02
48968;BME280;46511;53.148;8.204;2023-03-26T15:44:19;100522.38;;;12.55;48.60
48968;BME280;46511;53.148;8.204;2023-03-26T15:50:06;100530.41;;;11.61;53.62
48968;BME280;46511;53.148;8.204;2023-03-26T15:52:54;100535.13;;;11.70;53.83
48968;BME280;46511;53.148;8.204;2023-03-26T15:55:40;100537.38;;;11.50;55.62
48968;BME280;46511;53.148;8.204;2023-03-26T15:58:34;100544.75;;;10.75;58.83
48968;BME280;46511;53.148;8.204;2023-03-26T16:04:40;100537.81;;;10.86;58.99
48968;BME280;46511;53.148;8.204;2023-03-26T16:18:43;100563.16;;;10.64;66.11
48968;BME280;46511;53.148;8.204;2023-03-26T16:29:22;100583.16;;;10.25;68.73
48968;BME280;46511;53.148;8.204;2023-03-26T16:37:40;100582.22;;;9.94;72.42
48968;BME280;46511;53.148;8.204;2023-03-26T16:42:48;100590.88;;;9.35;75.71
48968;BME280;46511;53.148;8.204;2023-03-26T16:51:52;100600.94;;;9.28;74.98
48968;BME280;46511;53.148;8.204;2023-03-26T16:54:46;100615.16;;;8.94;78.25
48968;BME280;46511;53.148;8.204;2023-03-26T16:57:45;100620.72;;;8.55;79.61
48968;BME280;46511;53.148;8.204;2023-03-26T17:00:33;100615.75;;;8.49;79.05
48968;BME280;46511;53.148;8.204;2023-03-26T17:03:16;100626.28;;;8.31;76.62
48968;BME280;46511;53.148;8.204;2023-03-26T17:06:04;100628.94;;;8.31;79.04
48968;BME280;46511;53.148;8.204;2023-03-26T17:11:55;100633.75;;;7.87;88.83
48968;BME280;46511;53.148;8.204;2023-03-26T17:17:28;100636.03;;;7.57;91.25
48968;BME280;46511;53.148;8.204;2023-03-26T17:23:19;100649.06;;;7.43;91.85
48968;BME280;46511;53.148;8.204;2023-03-26T17:26:09;100652.41;;;7.65;91.80
48968;BME280;46511;53.148;8.204;2023-03-26T17:29:05;100655.38;;;7.39;95.40
48968;BME280;46511;53.148;8.204;2023-03-26T17:31:58;100656.84;;;7.07;96.84
48968;BME280;46511;53.148;8.204;2023-03-26T17:42:31;100679.38;;;6.95;97.57
48968;BME280;46511;53.148;8.204;2023-03-26T17:47:57;100682.53;;;7.03;96.71
48968;BME280;46511;53.148;8.204;2023-03-26T17:50:39;100695.38;;;6.70;98.95
48968;BME280;46511;53.148;8.204;2023-03-26T17:53:23;100692.16;;;6.64;98.92
48968;BME280;46511;53.148;8.204;2023-03-26T17:55:56;100691.78;;;6.73;98.37
48968;BME280;46511;53.148;8.204;2023-03-26T17:58:36;100697.44;;;6.64;99.71
48968;BME280;46511;53.148;8.204;2023-03-26T18:01:25;100698.13;;;6.47;100.00
48968;BME280;46511;53.148;8.204;2023-03-26T18:04:03;100708.91;;;6.63;99.52
48968;BME280;46511;53.148;8.204;2023-03-26T18:09:31;100714.16;;;6.42;100.00
48968;BME280;46511;53.148;8.204;2023-03-26T18:17:54;100726.78;;;6.34;100.00
48968;BME280;46511;53.148;8.204;2023-03-26T18:20:37;100729.28;;;6.15;100.00
48968;BME280;46511;53.148;8.204;2023-03-26T18:23:19;100744.59;;;6.29;100.00
48968;BME280;46511;53.148;8.204;2023-03-26T18:26:07;100736.91;;;6.23;100.00
48968;BME280;46511;53.148;8.204;2023-03-26T18:34:31;100747.56;;;5.98;100.00
48968;BME280;46511;53.148;8.204;2023-03-26T18:39:43;100763.25;;;6.01;100.00
48968;BME280;46511;53.148;8.204;2023-03-26T18:42:27;100768.53;;;6.01;100.00
48968;BME280;46511;53.148;8.204;2023-03-26T18:45:04;100773.75;;;5.79;100.00
48968;BME280;46511;53.148;8.204;2023-03-26T18:47:38;100768.88;;;5.92;100.00
48968;BME280;46511;53.148;8.204;2023-03-26T18:50:13;100769.94;;;5.86;100.00
48968;BME280;46511;53.148;8.204;2023-03-26T18:52:46;100786.72;;;5.84;100.00
48968;BME280;46511;53.148;8.204;2023-03-26T18:55:18;100784.09;;;5.84;100.00
48968;BME280;46511;53.148;8.204;2023-03-26T18:57:49;100787.00;;;5.76;100.00
48968;BME280;46511;53.148;8.204;2023-03-26T19:00:24;100792.41;;;5.73;100.00